Mill Run, Pennsylvania
Current Conditions -  °F | °C
As of 2:55 AM on Sunday 26 Oct 2014 (Local Time) from KLBE Reporting Station
Clear Clear  
Wind Chill: 54°   Ceiling: Unl
Heat Index: 54°   Visibility: 10mi
Dew Point: 34°   Wind: 7mph
Humidity: 47%   Direction: 270°W
Pressure: 29.8"   Gusts: NA
Location:  39.95°N, 79.45°W
Report Text: KLBE 260655Z AUTO 27006KT 10SM CLR 12/01 A2980 RMK A02 P000
Loading
Personal Weather Stations






























Interactive Weather Map
Tropical Storm Tracking
New forecast layout! Learn more

10-Day Weather Forecast

Advertisements
Track Severe Weather on mobile